Main page
METAR-TAF:

METAR-TAF

Airports :

Amman Civil Airport

Amman, Jordan

latitude: 31-59N, longitude: 035-59E, elevation: 767 m

Current weather observation

The report was made 35 minutes ago, at 03:00 UTC
Calm wind
Temperature 21°C
Humidity 83%
Pressure 1012 hPa
Visibility: 3000 m
haze

METAR: OJAM 270300Z 00000KT 3000 HZ NSC 21/18 Q1012 NOSIG

Time: 06:35 (03:35 UTC)

Forecast

The report was made 4 hours and 56 minutes ago, at 22:39 UTC
Forecast valid from 27 at 00 UTC to 28 at 06 UTC
Wind kt from the North
Visibility: 4000 m
haze
Temporary
from 27 at 02 UTC to 27 at 06 UTC
Wind 4 kt from the Northwest
Visibility: 3000 m
Becoming
from 27 at 12 UTC to 27 at 14 UTC
Wind 10 kt from the West
Visibility: 5000 m
haze

TAF: OJAM 262239Z 2700/2806 00000KT 4000 HZ NSC TEMPO 2702/2706 32004KT 3000 BECMG 2712/2714 26010KT 5000 HZ

Weather observations and forecasts of more than 4000 airports (METAR and TAF reports).

The available stations are represented by yellow and red dots on the map.

Hover mouse over dot to see the name of the station.

Then click to see weather observations and forecasts.

To change the map : click on the green buttons with a black cross to zoom in, on the green button with a dash to zoom out, or on the green arrows for adjacent maps.


METAR-TAF: